sensor_id;sensor_type;location;lat;lon;timestamp;pressure;altitude;pressure_sealevel;temperature;humidity
46087;BME280;31824;49.648;8.640;2023-03-25T00:00:03;99555.97;;;10.68;100.00
46087;BME280;31824;49.648;8.640;2023-03-25T00:03:11;99547.44;;;10.92;100.00
46087;BME280;31824;49.648;8.640;2023-03-25T00:06:13;99561.91;;;10.87;100.00
46087;BME280;31824;49.648;8.640;2023-03-25T00:09:14;99553.78;;;10.84;100.00
46087;BME280;31824;49.648;8.640;2023-03-25T00:12:17;99565.72;;;10.91;100.00
46087;BME280;31824;49.648;8.640;2023-03-25T00:15:20;99564.41;;;10.86;100.00
46087;BME280;31824;49.648;8.640;2023-03-25T00:18:24;99572.88;;;10.71;100.00
46087;BME280;31824;49.648;8.640;2023-03-25T00:21:26;99570.38;;;10.73;100.00
46087;BME280;31824;49.648;8.640;2023-03-25T00:24:28;99573.97;;;10.63;100.00
46087;BME280;31824;49.648;8.640;2023-03-25T00:27:31;99591.31;;;10.61;100.00
46087;BME280;31824;49.648;8.640;2023-03-25T00:30:33;99594.88;;;10.51;100.00
46087;BME280;31824;49.648;8.640;2023-03-25T00:33:35;99588.72;;;10.51;100.00
46087;BME280;31824;49.648;8.640;2023-03-25T00:36:37;99592.66;;;10.45;100.00
46087;BME280;31824;49.648;8.640;2023-03-25T00:39:38;99597.66;;;10.42;100.00
46087;BME280;31824;49.648;8.640;2023-03-25T00:42:42;99593.44;;;10.34;100.00
46087;BME280;31824;49.648;8.640;2023-03-25T00:45:45;99587.69;;;10.38;100.00
46087;BME280;31824;49.648;8.640;2023-03-25T00:48:53;99574.31;;;10.35;100.00
46087;BME280;31824;49.648;8.640;2023-03-25T00:51:55;99558.41;;;10.34;100.00
46087;BME280;31824;49.648;8.640;2023-03-25T00:54:58;99567.97;;;10.33;100.00
46087;BME280;31824;49.648;8.640;2023-03-25T00:58:01;99569.31;;;10.38;100.00
46087;BME280;31824;49.648;8.640;2023-03-25T01:01:08;99574.69;;;10.40;100.00
46087;BME280;31824;49.648;8.640;2023-03-25T01:04:11;99573.91;;;10.41;100.00
46087;BME280;31824;49.648;8.640;2023-03-25T01:07:15;99565.78;;;10.38;100.00
46087;BME280;31824;49.648;8.640;2023-03-25T01:10:17;99564.72;;;10.36;100.00
46087;BME280;31824;49.648;8.640;2023-03-25T01:13:22;99566.16;;;10.42;100.00
46087;BME280;31824;49.648;8.640;2023-03-25T01:16:24;99560.78;;;10.41;100.00
46087;BME280;31824;49.648;8.640;2023-03-25T01:19:26;99556.56;;;10.33;100.00
46087;BME280;31824;49.648;8.640;2023-03-25T01:22:28;99560.38;;;10.26;100.00
46087;BME280;31824;49.648;8.640;2023-03-25T01:25:30;99550.19;;;10.19;100.00
46087;BME280;31824;49.648;8.640;2023-03-25T01:28:33;99542.06;;;10.05;100.00
46087;BME280;31824;49.648;8.640;2023-03-25T01:31:37;99543.53;;;9.91;100.00
46087;BME280;31824;49.648;8.640;2023-03-25T01:34:40;99544.44;;;9.82;100.00
46087;BME280;31824;49.648;8.640;2023-03-25T01:37:43;99544.06;;;9.56;100.00
46087;BME280;31824;49.648;8.640;2023-03-25T01:40:47;99533.81;;;9.49;100.00
46087;BME280;31824;49.648;8.640;2023-03-25T01:44:03;99528.34;;;9.56;100.00
46087;BME280;31824;49.648;8.640;2023-03-25T01:47:05;99530.03;;;9.56;100.00
46087;BME280;31824;49.648;8.640;2023-03-25T01:50:09;99526.47;;;9.45;100.00
46087;BME280;31824;49.648;8.640;2023-03-25T01:53:15;99526.06;;;9.30;100.00
46087;BME280;31824;49.648;8.640;2023-03-25T01:56:19;99539.06;;;9.18;100.00
46087;BME280;31824;49.648;8.640;2023-03-25T01:59:26;99547.03;;;9.09;100.00
46087;BME280;31824;49.648;8.640;2023-03-25T02:02:29;99593.53;;;9.02;100.00
46087;BME280;31824;49.648;8.640;2023-03-25T02:05:40;99589.91;;;8.81;100.00
46087;BME280;31824;49.648;8.640;2023-03-25T02:08:43;99568.09;;;8.42;100.00
46087;BME280;31824;49.648;8.640;2023-03-25T02:11:45;99553.25;;;8.32;100.00
46087;BME280;31824;49.648;8.640;2023-03-25T02:14:49;99559.84;;;8.18;100.00
46087;BME280;31824;49.648;8.640;2023-03-25T02:18:14;99539.03;;;8.20;100.00
46087;BME280;31824;49.648;8.640;2023-03-25T02:21:54;99543.75;;;8.14;100.00
46087;BME280;31824;49.648;8.640;2023-03-25T02:28:51;99528.69;;;7.92;100.00
46087;BME280;31824;49.648;8.640;2023-03-25T02:32:05;99528.97;;;7.95;100.00
46087;BME280;31824;49.648;8.640;2023-03-25T02:35:28;99536.41;;;7.90;100.00
46087;BME280;31824;49.648;8.640;2023-03-25T02:38:38;99550.03;;;7.97;100.00
46087;BME280;31824;49.648;8.640;2023-03-25T02:41:48;99563.41;;;8.00;100.00
46087;BME280;31824;49.648;8.640;2023-03-25T02:44:55;99576.31;;;7.98;100.00
46087;BME280;31824;49.648;8.640;2023-03-25T02:48:02;99574.38;;;7.96;100.00
46087;BME280;31824;49.648;8.640;2023-03-25T02:51:09;99571.88;;;7.97;100.00
46087;BME280;31824;49.648;8.640;2023-03-25T02:54:15;99569.91;;;7.94;100.00
46087;BME280;31824;49.648;8.640;2023-03-25T02:57:18;99578.38;;;7.92;100.00
46087;BME280;31824;49.648;8.640;2023-03-25T03:00:23;99565.22;;;7.82;100.00
46087;BME280;31824;49.648;8.640;2023-03-25T03:03:27;99572.16;;;7.81;100.00
46087;BME280;31824;49.648;8.640;2023-03-25T03:06:38;99568.94;;;7.75;100.00
46087;BME280;31824;49.648;8.640;2023-03-25T03:09:44;99573.69;;;7.79;100.00
46087;BME280;31824;49.648;8.640;2023-03-25T03:12:57;99575.63;;;7.71;100.00
46087;BME280;31824;49.648;8.640;2023-03-25T03:16:08;99562.69;;;7.73;100.00
46087;BME280;31824;49.648;8.640;2023-03-25T03:19:23;99566.19;;;7.73;100.00
46087;BME280;31824;49.648;8.640;2023-03-25T03:22:37;99567.34;;;7.86;100.00
46087;BME280;31824;49.648;8.640;2023-03-25T03:25:46;99562.06;;;7.94;100.00
46087;BME280;31824;49.648;8.640;2023-03-25T03:28:55;99563.25;;;7.98;100.00
46087;BME280;31824;49.648;8.640;2023-03-25T03:32:05;99569.31;;;8.07;100.00
46087;BME280;31824;49.648;8.640;2023-03-25T03:35:14;99568.06;;;8.13;100.00
46087;BME280;31824;49.648;8.640;2023-03-25T03:38:19;99559.44;;;8.14;100.00
46087;BME280;31824;49.648;8.640;2023-03-25T03:41:25;99558.81;;;8.16;100.00
46087;BME280;31824;49.648;8.640;2023-03-25T03:44:32;99563.22;;;8.17;100.00
46087;BME280;31824;49.648;8.640;2023-03-25T03:47:38;99571.25;;;8.19;100.00
46087;BME280;31824;49.648;8.640;2023-03-25T03:50:46;99579.09;;;8.19;100.00
46087;BME280;31824;49.648;8.640;2023-03-25T03:53:53;99576.47;;;8.19;100.00
46087;BME280;31824;49.648;8.640;2023-03-25T03:57:02;99581.72;;;8.19;100.00
46087;BME280;31824;49.648;8.640;2023-03-25T04:00:11;99587.22;;;8.22;100.00
46087;BME280;31824;49.648;8.640;2023-03-25T04:03:18;99585.16;;;8.28;100.00
46087;BME280;31824;49.648;8.640;2023-03-25T04:06:28;99578.59;;;8.23;100.00
46087;BME280;31824;49.648;8.640;2023-03-25T04:09:39;99586.44;;;8.23;100.00
46087;BME280;31824;49.648;8.640;2023-03-25T04:12:50;99579.22;;;8.20;100.00
46087;BME280;31824;49.648;8.640;2023-03-25T04:15:53;99576.88;;;8.23;100.00
46087;BME280;31824;49.648;8.640;2023-03-25T04:18:55;99581.63;;;8.27;100.00
46087;BME280;31824;49.648;8.640;2023-03-25T04:21:59;99577.78;;;8.24;100.00
46087;BME280;31824;49.648;8.640;2023-03-25T04:25:03;99574.13;;;8.22;100.00
46087;BME280;31824;49.648;8.640;2023-03-25T04:28:07;99582.75;;;8.21;100.00
46087;BME280;31824;49.648;8.640;2023-03-25T04:31:12;99586.44;;;8.23;100.00
46087;BME280;31824;49.648;8.640;2023-03-25T04:34:16;99583.03;;;8.24;100.00
46087;BME280;31824;49.648;8.640;2023-03-25T04:37:18;99589.84;;;8.22;100.00
46087;BME280;31824;49.648;8.640;2023-03-25T04:40:20;99599.22;;;8.20;100.00
46087;BME280;31824;49.648;8.640;2023-03-25T04:43:23;99601.84;;;8.20;100.00
46087;BME280;31824;49.648;8.640;2023-03-25T04:46:25;99603.28;;;8.16;100.00
46087;BME280;31824;49.648;8.640;2023-03-25T04:49:27;99598.81;;;8.15;100.00
46087;BME280;31824;49.648;8.640;2023-03-25T04:52:29;99597.41;;;8.19;100.00
46087;BME280;31824;49.648;8.640;2023-03-25T04:55:31;99605.91;;;8.16;100.00
46087;BME280;31824;49.648;8.640;2023-03-25T04:58:36;99597.69;;;8.22;100.00
46087;BME280;31824;49.648;8.640;2023-03-25T05:01:38;99607.06;;;8.20;100.00
46087;BME280;31824;49.648;8.640;2023-03-25T05:04:42;99596.28;;;8.25;100.00
46087;BME280;31824;49.648;8.640;2023-03-25T05:07:50;99591.09;;;8.17;100.00
46087;BME280;31824;49.648;8.640;2023-03-25T05:10:52;99587.22;;;8.22;100.00
46087;BME280;31824;49.648;8.640;2023-03-25T05:13:55;99594.13;;;8.21;100.00
46087;BME280;31824;49.648;8.640;2023-03-25T05:16:57;99588.56;;;8.27;100.00
46087;BME280;31824;49.648;8.640;2023-03-25T05:20:00;99588.00;;;8.21;100.00
46087;BME280;31824;49.648;8.640;2023-03-25T05:23:03;99596.34;;;8.17;100.00
46087;BME280;31824;49.648;8.640;2023-03-25T05:26:05;99599.84;;;8.17;100.00
46087;BME280;31824;49.648;8.640;2023-03-25T05:29:10;99606.25;;;8.10;100.00
46087;BME280;31824;49.648;8.640;2023-03-25T05:32:15;99604.91;;;8.05;100.00
46087;BME280;31824;49.648;8.640;2023-03-25T05:35:18;99602.84;;;8.11;100.00
46087;BME280;31824;49.648;8.640;2023-03-25T05:38:21;99607.53;;;8.05;100.00
46087;BME280;31824;49.648;8.640;2023-03-25T05:41:25;99617.97;;;8.05;100.00
46087;BME280;31824;49.648;8.640;2023-03-25T05:44:54;99613.53;;;8.04;100.00
46087;BME280;31824;49.648;8.640;2023-03-25T05:47:56;99611.03;;;8.06;100.00
46087;BME280;31824;49.648;8.640;2023-03-25T05:51:02;99608.50;;;8.16;100.00
46087;BME280;31824;49.648;8.640;2023-03-25T05:54:05;99617.63;;;8.30;100.00
46087;BME280;31824;49.648;8.640;2023-03-25T05:57:12;99619.25;;;8.38;100.00
46087;BME280;31824;49.648;8.640;2023-03-25T06:00:18;99629.22;;;8.61;100.00
46087;BME280;31824;49.648;8.640;2023-03-25T06:03:20;99611.28;;;8.66;100.00
46087;BME280;31824;49.648;8.640;2023-03-25T06:06:22;99636.56;;;8.66;100.00
46087;BME280;31824;49.648;8.640;2023-03-25T06:09:26;99633.22;;;8.77;100.00
46087;BME280;31824;49.648;8.640;2023-03-25T06:12:31;99646.50;;;8.89;100.00
46087;BME280;31824;49.648;8.640;2023-03-25T06:15:35;99639.72;;;8.91;100.00
46087;BME280;31824;49.648;8.640;2023-03-25T06:18:41;99641.03;;;8.96;100.00
46087;BME280;31824;49.648;8.640;2023-03-25T06:21:43;99653.34;;;8.97;100.00
46087;BME280;31824;49.648;8.640;2023-03-25T06:24:52;99653.09;;;9.04;100.00
46087;BME280;31824;49.648;8.640;2023-03-25T06:27:53;99656.69;;;9.15;100.00
46087;BME280;31824;49.648;8.640;2023-03-25T06:30:58;99643.88;;;9.18;100.00
46087;BME280;31824;49.648;8.640;2023-03-25T06:34:00;99653.56;;;9.19;100.00
46087;BME280;31824;49.648;8.640;2023-03-25T06:37:02;99657.25;;;9.21;100.00
46087;BME280;31824;49.648;8.640;2023-03-25T06:40:05;99667.47;;;9.18;100.00
46087;BME280;31824;49.648;8.640;2023-03-25T06:43:08;99643.47;;;9.13;100.00
46087;BME280;31824;49.648;8.640;2023-03-25T06:46:11;99648.16;;;9.07;100.00
46087;BME280;31824;49.648;8.640;2023-03-25T06:49:34;99666.72;;;9.00;100.00
46087;BME280;31824;49.648;8.640;2023-03-25T06:52:35;99669.19;;;8.99;100.00
46087;BME280;31824;49.648;8.640;2023-03-25T06:55:37;99663.25;;;9.10;100.00
46087;BME280;31824;49.648;8.640;2023-03-25T06:58:40;99657.75;;;9.17;100.00
46087;BME280;31824;49.648;8.640;2023-03-25T07:01:44;99649.38;;;9.21;100.00
46087;BME280;31824;49.648;8.640;2023-03-25T07:04:46;99652.41;;;9.26;100.00
46087;BME280;31824;49.648;8.640;2023-03-25T07:07:49;99660.56;;;9.29;100.00
46087;BME280;31824;49.648;8.640;2023-03-25T07:10:51;99650.09;;;9.39;100.00
46087;BME280;31824;49.648;8.640;2023-03-25T07:13:54;99642.00;;;9.57;100.00
46087;BME280;31824;49.648;8.640;2023-03-25T07:16:59;99638.19;;;9.53;100.00
46087;BME280;31824;49.648;8.640;2023-03-25T07:20:02;99640.22;;;9.76;100.00
46087;BME280;31824;49.648;8.640;2023-03-25T07:23:25;99629.44;;;9.84;100.00
46087;BME280;31824;49.648;8.640;2023-03-25T07:26:26;99636.53;;;9.95;100.00
46087;BME280;31824;49.648;8.640;2023-03-25T07:29:28;99625.78;;;9.92;100.00
46087;BME280;31824;49.648;8.640;2023-03-25T07:32:32;99622.91;;;9.89;100.00
46087;BME280;31824;49.648;8.640;2023-03-25T07:35:34;99627.22;;;9.88;100.00
46087;BME280;31824;49.648;8.640;2023-03-25T07:38:36;99608.72;;;9.87;100.00
46087;BME280;31824;49.648;8.640;2023-03-25T07:41:38;99632.06;;;10.04;100.00
46087;BME280;31824;49.648;8.640;2023-03-25T07:44:52;99627.19;;;10.19;100.00
46087;BME280;31824;49.648;8.640;2023-03-25T07:47:56;99625.25;;;10.27;100.00
46087;BME280;31824;49.648;8.640;2023-03-25T07:50:57;99617.22;;;10.46;100.00
46087;BME280;31824;49.648;8.640;2023-03-25T07:54:00;99618.66;;;10.53;100.00
46087;BME280;31824;49.648;8.640;2023-03-25T07:57:06;99621.81;;;10.49;100.00
46087;BME280;31824;49.648;8.640;2023-03-25T08:00:09;99613.09;;;10.60;100.00
46087;BME280;31824;49.648;8.640;2023-03-25T08:03:16;99604.72;;;10.86;100.00
46087;BME280;31824;49.648;8.640;2023-03-25T08:06:18;99624.53;;;10.93;100.00
46087;BME280;31824;49.648;8.640;2023-03-25T08:09:20;99632.56;;;10.94;100.00
46087;BME280;31824;49.648;8.640;2023-03-25T08:12:22;99619.06;;;10.90;100.00
46087;BME280;31824;49.648;8.640;2023-03-25T08:15:24;99628.03;;;10.71;100.00
46087;BME280;31824;49.648;8.640;2023-03-25T08:18:27;99639.78;;;10.54;100.00
46087;BME280;31824;49.648;8.640;2023-03-25T08:21:29;99634.41;;;10.53;100.00
46087;BME280;31824;49.648;8.640;2023-03-25T08:24:31;99635.06;;;10.50;100.00
46087;BME280;31824;49.648;8.640;2023-03-25T08:27:33;99639.91;;;10.56;100.00
46087;BME280;31824;49.648;8.640;2023-03-25T08:30:35;99636.09;;;10.62;100.00
46087;BME280;31824;49.648;8.640;2023-03-25T08:33:40;99643.44;;;10.67;100.00
46087;BME280;31824;49.648;8.640;2023-03-25T08:36:43;99622.91;;;10.73;100.00
46087;BME280;31824;49.648;8.640;2023-03-25T08:39:45;99622.91;;;10.73;100.00
46087;BME280;31824;49.648;8.640;2023-03-25T08:42:50;99612.13;;;10.80;100.00
46087;BME280;31824;49.648;8.640;2023-03-25T08:45:52;99618.00;;;10.88;100.00
46087;BME280;31824;49.648;8.640;2023-03-25T08:48:55;99608.03;;;10.84;100.00
46087;BME280;31824;49.648;8.640;2023-03-25T08:51:58;99633.22;;;10.59;100.00
46087;BME280;31824;49.648;8.640;2023-03-25T08:55:01;99638.66;;;10.40;100.00
46087;BME280;31824;49.648;8.640;2023-03-25T08:58:04;99634.19;;;10.39;100.00
46087;BME280;31824;49.648;8.640;2023-03-25T09:01:08;99630.47;;;10.17;100.00
46087;BME280;31824;49.648;8.640;2023-03-25T09:04:12;99635.22;;;10.10;100.00
46087;BME280;31824;49.648;8.640;2023-03-25T09:07:14;99633.50;;;10.01;100.00
46087;BME280;31824;49.648;8.640;2023-03-25T09:10:16;99624.19;;;10.04;100.00
46087;BME280;31824;49.648;8.640;2023-03-25T09:13:19;99627.88;;;10.06;100.00
46087;BME280;31824;49.648;8.640;2023-03-25T09:16:21;99629.31;;;9.92;100.00
46087;BME280;31824;49.648;8.640;2023-03-25T09:19:26;99623.41;;;10.05;100.00
46087;BME280;31824;49.648;8.640;2023-03-25T09:22:27;99613.81;;;10.06;100.00
46087;BME280;31824;49.648;8.640;2023-03-25T09:25:29;99615.66;;;9.96;100.00
46087;BME280;31824;49.648;8.640;2023-03-25T09:28:31;99606.63;;;10.13;100.00
46087;BME280;31824;49.648;8.640;2023-03-25T09:31:33;99612.38;;;9.99;100.00
46087;BME280;31824;49.648;8.640;2023-03-25T09:34:37;99599.75;;;10.26;100.00
46087;BME280;31824;49.648;8.640;2023-03-25T09:37:39;99598.47;;;10.21;100.00
46087;BME280;31824;49.648;8.640;2023-03-25T09:40:44;99601.59;;;10.47;100.00
46087;BME280;31824;49.648;8.640;2023-03-25T09:43:51;99621.00;;;10.50;100.00
46087;BME280;31824;49.648;8.640;2023-03-25T09:46:58;99610.84;;;10.64;100.00
46087;BME280;31824;49.648;8.640;2023-03-25T09:50:06;99610.78;;;10.53;100.00
46087;BME280;31824;49.648;8.640;2023-03-25T09:53:18;99609.72;;;10.51;100.00
46087;BME280;31824;49.648;8.640;2023-03-25T09:56:26;99602.50;;;10.48;100.00
46087;BME280;31824;49.648;8.640;2023-03-25T09:59:36;99606.56;;;10.55;100.00
46087;BME280;31824;49.648;8.640;2023-03-25T10:02:43;99593.00;;;10.60;100.00
46087;BME280;31824;49.648;8.640;2023-03-25T10:05:59;99600.22;;;10.63;100.00
46087;BME280;31824;49.648;8.640;2023-03-25T10:09:21;99615.03;;;10.73;100.00
46087;BME280;31824;49.648;8.640;2023-03-25T10:12:34;99626.25;;;10.60;100.00
46087;BME280;31824;49.648;8.640;2023-03-25T10:15:48;99622.72;;;10.59;100.00
46087;BME280;31824;49.648;8.640;2023-03-25T10:19:01;99623.09;;;10.96;100.00
46087;BME280;31824;49.648;8.640;2023-03-25T10:22:11;99607.78;;;11.35;100.00
46087;BME280;31824;49.648;8.640;2023-03-25T10:25:19;99607.94;;;11.48;100.00
46087;BME280;31824;49.648;8.640;2023-03-25T10:28:27;99604.88;;;12.10;100.00
46087;BME280;31824;49.648;8.640;2023-03-25T10:31:33;99607.91;;;12.62;100.00
46087;BME280;31824;49.648;8.640;2023-03-25T10:34:39;99622.41;;;12.22;100.00
46087;BME280;31824;49.648;8.640;2023-03-25T10:37:46;99621.13;;;12.16;100.00
46087;BME280;31824;49.648;8.640;2023-03-25T10:40:51;99611.50;;;12.05;100.00
46087;BME280;31824;49.648;8.640;2023-03-25T10:44:06;99618.63;;;12.18;100.00
46087;BME280;31824;49.648;8.640;2023-03-25T10:47:12;99617.34;;;12.01;100.00
46087;BME280;31824;49.648;8.640;2023-03-25T10:50:37;99630.50;;;12.01;100.00
46087;BME280;31824;49.648;8.640;2023-03-25T10:53:45;99602.47;;;12.13;100.00
46087;BME280;31824;49.648;8.640;2023-03-25T10:56:50;99587.41;;;11.89;100.00
46087;BME280;31824;49.648;8.640;2023-03-25T10:59:59;99587.47;;;11.78;100.00
46087;BME280;31824;49.648;8.640;2023-03-25T11:03:08;99583.22;;;11.69;100.00
46087;BME280;31824;49.648;8.640;2023-03-25T11:06:23;99645.84;;;11.51;100.00
46087;BME280;31824;49.648;8.640;2023-03-25T11:09:29;99705.69;;;10.26;100.00
46087;BME280;31824;49.648;8.640;2023-03-25T11:12:31;99693.47;;;9.06;100.00
46087;BME280;31824;49.648;8.640;2023-03-25T11:15:43;99677.84;;;9.27;100.00
46087;BME280;31824;49.648;8.640;2023-03-25T11:18:45;99680.06;;;9.83;100.00
46087;BME280;31824;49.648;8.640;2023-03-25T11:21:56;99685.72;;;10.18;100.00
46087;BME280;31824;49.648;8.640;2023-03-25T11:25:05;99673.00;;;10.02;100.00
46087;BME280;31824;49.648;8.640;2023-03-25T11:28:12;99674.47;;;10.40;100.00
46087;BME280;31824;49.648;8.640;2023-03-25T11:31:18;99666.00;;;10.75;100.00
46087;BME280;31824;49.648;8.640;2023-03-25T11:34:21;99677.28;;;10.84;100.00
46087;BME280;31824;49.648;8.640;2023-03-25T11:37:26;99669.25;;;11.70;100.00
46087;BME280;31824;49.648;8.640;2023-03-25T11:40:37;99665.78;;;11.59;100.00
46087;BME280;31824;49.648;8.640;2023-03-25T11:43:49;99652.13;;;12.09;100.00
46087;BME280;31824;49.648;8.640;2023-03-25T11:46:54;99653.59;;;12.63;100.00
46087;BME280;31824;49.648;8.640;2023-03-25T11:50:00;99654.88;;;12.68;100.00
46087;BME280;31824;49.648;8.640;2023-03-25T11:53:03;99648.00;;;12.01;100.00
46087;BME280;31824;49.648;8.640;2023-03-25T11:56:10;99666.78;;;12.05;100.00
46087;BME280;31824;49.648;8.640;2023-03-25T11:59:23;99656.44;;;11.96;100.00
46087;BME280;31824;49.648;8.640;2023-03-25T12:02:28;99680.72;;;12.38;100.00
46087;BME280;31824;49.648;8.640;2023-03-25T12:05:32;99666.22;;;12.79;100.00
46087;BME280;31824;49.648;8.640;2023-03-25T12:08:42;99680.53;;;12.59;100.00
46087;BME280;31824;49.648;8.640;2023-03-25T12:11:53;99658.44;;;12.80;100.00
46087;BME280;31824;49.648;8.640;2023-03-25T12:15:06;99639.97;;;12.80;100.00
46087;BME280;31824;49.648;8.640;2023-03-25T12:18:30;99637.75;;;13.22;100.00
46087;BME280;31824;49.648;8.640;2023-03-25T12:21:52;99638.91;;;13.38;100.00
46087;BME280;31824;49.648;8.640;2023-03-25T12:25:07;99629.63;;;13.93;100.00
46087;BME280;31824;49.648;8.640;2023-03-25T12:32:00;99636.25;;;14.00;100.00
46087;BME280;31824;49.648;8.640;2023-03-25T12:35:20;99629.66;;;13.81;100.00
46087;BME280;31824;49.648;8.640;2023-03-25T12:38:36;99645.19;;;13.28;100.00
46087;BME280;31824;49.648;8.640;2023-03-25T12:41:46;99624.41;;;13.44;100.00
46087;BME280;31824;49.648;8.640;2023-03-25T12:45:05;99650.63;;;13.66;100.00
46087;BME280;31824;49.648;8.640;2023-03-25T12:48:24;99626.66;;;13.63;100.00
46087;BME280;31824;49.648;8.640;2023-03-25T12:51:40;99661.59;;;13.24;100.00
46087;BME280;31824;49.648;8.640;2023-03-25T12:54:55;99638.03;;;12.90;100.00
46087;BME280;31824;49.648;8.640;2023-03-25T12:58:15;99631.94;;;12.67;100.00
46087;BME280;31824;49.648;8.640;2023-03-25T13:01:25;99623.69;;;12.86;100.00
46087;BME280;31824;49.648;8.640;2023-03-25T13:04:46;99625.09;;;12.57;100.00
46087;BME280;31824;49.648;8.640;2023-03-25T13:07:55;99637.66;;;13.21;100.00
46087;BME280;31824;49.648;8.640;2023-03-25T13:11:02;99640.19;;;12.83;100.00
46087;BME280;31824;49.648;8.640;2023-03-25T13:14:11;99629.22;;;12.77;100.00
46087;BME280;31824;49.648;8.640;2023-03-25T13:17:24;99641.34;;;12.75;100.00
46087;BME280;31824;49.648;8.640;2023-03-25T13:20:31;99650.84;;;12.85;100.00
46087;BME280;31824;49.648;8.640;2023-03-25T13:23:35;99624.94;;;13.03;100.00
46087;BME280;31824;49.648;8.640;2023-03-25T13:26:40;99626.38;;;13.47;100.00
46087;BME280;31824;49.648;8.640;2023-03-25T13:29:47;99625.94;;;13.66;100.00
46087;BME280;31824;49.648;8.640;2023-03-25T13:32:53;99614.06;;;13.98;100.00
46087;BME280;31824;49.648;8.640;2023-03-25T13:36:00;99612.88;;;15.12;100.00
46087;BME280;31824;49.648;8.640;2023-03-25T13:39:11;99611.59;;;15.47;100.00
46087;BME280;31824;49.648;8.640;2023-03-25T13:42:18;99633.69;;;14.79;100.00
46087;BME280;31824;49.648;8.640;2023-03-25T13:45:22;99625.56;;;14.37;100.00
46087;BME280;31824;49.648;8.640;2023-03-25T13:48:28;99605.09;;;14.08;100.00
46087;BME280;31824;49.648;8.640;2023-03-25T13:51:35;99631.50;;;13.82;100.00
46087;BME280;31824;49.648;8.640;2023-03-25T13:54:41;99636.59;;;13.42;100.00
46087;BME280;31824;49.648;8.640;2023-03-25T13:58:08;99647.63;;;13.25;100.00
46087;BME280;31824;49.648;8.640;2023-03-25T14:01:44;99645.22;;;13.16;100.00
46087;BME280;31824;49.648;8.640;2023-03-25T14:05:19;99645.81;;;13.36;100.00
46087;BME280;31824;49.648;8.640;2023-03-25T14:08:59;99635.59;;;14.68;100.00
46087;BME280;31824;49.648;8.640;2023-03-25T14:12:08;99630.66;;;13.95;100.00
46087;BME280;31824;49.648;8.640;2023-03-25T14:15:15;99638.25;;;13.91;100.00
46087;BME280;31824;49.648;8.640;2023-03-25T14:18:21;99639.28;;;14.31;100.00
46087;BME280;31824;49.648;8.640;2023-03-25T14:21:32;99639.59;;;14.49;100.00
46087;BME280;31824;49.648;8.640;2023-03-25T14:24:36;99639.59;;;14.49;100.00
46087;BME280;31824;49.648;8.640;2023-03-25T14:27:38;99649.19;;;14.22;100.00
46087;BME280;31824;49.648;8.640;2023-03-25T14:30:41;99642.69;;;15.09;100.00
46087;BME280;31824;49.648;8.640;2023-03-25T14:34:12;99638.97;;;15.89;100.00
46087;BME280;31824;49.648;8.640;2023-03-25T14:37:27;99654.31;;;16.38;100.00
46087;BME280;31824;49.648;8.640;2023-03-25T14:40:47;99627.13;;;17.02;100.00
46087;BME280;31824;49.648;8.640;2023-03-25T14:44:16;99618.56;;;16.16;100.00
46087;BME280;31824;49.648;8.640;2023-03-25T14:47:30;99621.63;;;15.11;100.00
46087;BME280;31824;49.648;8.640;2023-03-25T14:50:35;99628.72;;;15.39;100.00
46087;BME280;31824;49.648;8.640;2023-03-25T14:53:37;99615.84;;;15.16;100.00
46087;BME280;31824;49.648;8.640;2023-03-25T14:56:51;99625.53;;;14.76;100.00
46087;BME280;31824;49.648;8.640;2023-03-25T14:59:55;99635.03;;;14.47;100.00
46087;BME280;31824;49.648;8.640;2023-03-25T15:03:04;99625.13;;;14.17;100.00
46087;BME280;31824;49.648;8.640;2023-03-25T15:06:15;99596.94;;;13.91;100.00
46087;BME280;31824;49.648;8.640;2023-03-25T15:09:18;99612.56;;;14.27;100.00
46087;BME280;31824;49.648;8.640;2023-03-25T15:12:24;99629.41;;;14.29;100.00
46087;BME280;31824;49.648;8.640;2023-03-25T15:15:30;99643.09;;;14.48;100.00
46087;BME280;31824;49.648;8.640;2023-03-25T15:19:01;99630.34;;;15.36;100.00
46087;BME280;31824;49.648;8.640;2023-03-25T15:22:06;99634.66;;;16.34;100.00
46087;BME280;31824;49.648;8.640;2023-03-25T15:25:18;99625.41;;;16.28;100.00
46087;BME280;31824;49.648;8.640;2023-03-25T15:32:05;99652.19;;;14.92;100.00
46087;BME280;31824;49.648;8.640;2023-03-25T15:35:32;99635.75;;;15.38;100.00
46087;BME280;31824;49.648;8.640;2023-03-25T15:38:46;99616.16;;;14.94;100.00
46087;BME280;31824;49.648;8.640;2023-03-25T15:42:11;99610.53;;;14.36;100.00
46087;BME280;31824;49.648;8.640;2023-03-25T15:45:28;99608.44;;;14.05;100.00
46087;BME280;31824;49.648;8.640;2023-03-25T15:52:28;99593.09;;;14.13;100.00
46087;BME280;31824;49.648;8.640;2023-03-25T15:55:33;99592.28;;;14.14;100.00
46087;BME280;31824;49.648;8.640;2023-03-25T15:58:42;99586.88;;;13.99;100.00
46087;BME280;31824;49.648;8.640;2023-03-25T16:01:50;99583.97;;;14.08;100.00
46087;BME280;31824;49.648;8.640;2023-03-25T16:04:53;99580.34;;;13.94;100.00
46087;BME280;31824;49.648;8.640;2023-03-25T16:07:57;99578.22;;;13.88;100.00
46087;BME280;31824;49.648;8.640;2023-03-25T16:11:17;99600.38;;;13.90;100.00
46087;BME280;31824;49.648;8.640;2023-03-25T16:14:28;99579.44;;;13.93;100.00
46087;BME280;31824;49.648;8.640;2023-03-25T16:17:33;99591.06;;;13.95;100.00
46087;BME280;31824;49.648;8.640;2023-03-25T16:20:35;99586.56;;;13.94;100.00
46087;BME280;31824;49.648;8.640;2023-03-25T16:23:37;99601.16;;;13.89;100.00
46087;BME280;31824;49.648;8.640;2023-03-25T16:26:42;99588.06;;;13.91;100.00
46087;BME280;31824;49.648;8.640;2023-03-25T16:29:46;99601.88;;;13.87;100.00
46087;BME280;31824;49.648;8.640;2023-03-25T16:32:52;99593.66;;;13.82;100.00
46087;BME280;31824;49.648;8.640;2023-03-25T16:35:56;99588.03;;;13.77;100.00
46087;BME280;31824;49.648;8.640;2023-03-25T16:38:59;99594.94;;;13.75;100.00